createdAt,value
2019-05-06T00:00:26.701Z,3.58
2019-05-06T00:02:56.067Z,3.74
2019-05-06T00:05:25.734Z,3.64
2019-05-06T00:07:55.159Z,3.36
2019-05-06T00:10:34.200Z,3.33
2019-05-06T00:13:04.600Z,3.13
2019-05-06T00:15:34.401Z,3.02
2019-05-06T00:18:04.643Z,3.00
2019-05-06T00:20:34.849Z,2.97
2019-05-06T00:23:14.229Z,3.11
2019-05-06T00:26:04.031Z,3.29
2019-05-06T00:28:53.900Z,3.30
2019-05-06T00:31:23.988Z,3.38
2019-05-06T00:33:54.067Z,3.49
2019-05-06T00:36:23.805Z,3.39
2019-05-06T00:38:56.071Z,3.23
2019-05-06T00:41:30.485Z,3.24
2019-05-06T00:43:59.652Z,3.12
2019-05-06T00:46:28.802Z,2.98
2019-05-06T00:48:58.031Z,2.86
2019-05-06T00:51:27.379Z,2.83
2019-05-06T00:54:04.646Z,2.69
2019-05-06T00:56:34.231Z,2.71
2019-05-06T00:59:03.846Z,2.68
2019-05-06T01:01:34.539Z,2.77
2019-05-06T01:04:05.048Z,2.77
2019-05-06T01:06:34.624Z,2.78
2019-05-06T01:09:06.943Z,2.64
2019-05-06T01:11:36.088Z,2.53
2019-05-06T01:14:16.758Z,2.43
2019-05-06T01:16:45.891Z,2.41
2019-05-06T01:19:15.088Z,2.26
2019-05-06T01:21:44.703Z,2.25
2019-05-06T01:24:14.802Z,2.15
2019-05-06T01:26:44.447Z,2.09
2019-05-06T01:29:14.566Z,2.06
2019-05-06T01:31:46.085Z,1.96
2019-05-06T01:34:14.899Z,1.72
2019-05-06T01:36:44.100Z,1.55
2019-05-06T01:39:27.835Z,1.56
2019-05-06T01:42:08.332Z,1.43
2019-05-06T01:44:37.590Z,1.41
2019-05-06T01:47:06.889Z,1.34
2019-05-06T01:49:36.134Z,1.27
2019-05-06T01:52:05.780Z,1.32
2019-05-06T01:54:35.109Z,1.17
2019-05-06T01:57:04.747Z,1.15
2019-05-06T01:59:34.287Z,1.17
2019-05-06T02:02:04.619Z,0.95
2019-05-06T02:04:33.936Z,0.80
2019-05-06T02:07:03.765Z,0.71
2019-05-06T02:09:34.280Z,0.76
2019-05-06T02:12:04.764Z,0.59
2019-05-06T02:14:34.390Z,0.77
2019-05-06T02:17:03.871Z,0.58
2019-05-06T02:19:34.814Z,0.58
2019-05-06T02:22:09.975Z,0.46
2019-05-06T02:24:45.730Z,0.46
2019-05-06T02:27:14.935Z,0.34
2019-05-06T02:29:54.346Z,0.37
2019-05-06T02:32:36.242Z,0.38
2019-05-06T02:35:26.396Z,0.25
2019-05-06T02:37:56.075Z,0.22
2019-05-06T02:40:27.272Z,0.01
2019-05-06T02:42:56.645Z,0.15
2019-05-06T02:45:25.909Z,0.23
2019-05-06T02:48:13.713Z,0.17
2019-05-06T02:51:03.387Z,0.20
2019-05-06T02:53:33.466Z,0.19
2019-05-06T02:56:04.006Z,0.19
2019-05-06T02:58:33.500Z,0.08
2019-05-06T03:01:03.703Z,0.02
2019-05-06T03:03:33.716Z,-0.06
2019-05-06T03:06:04.231Z,-0.03
2019-05-06T03:08:33.863Z,0.02
2019-05-06T03:11:04.148Z,0.00
2019-05-06T03:13:34.157Z,-0.11
2019-05-06T03:16:05.928Z,-0.05
2019-05-06T03:18:34.566Z,-0.12
2019-05-06T03:21:24.438Z,-0.20
2019-05-06T03:23:58.263Z,-0.17
2019-05-06T03:26:27.491Z,-0.23
2019-05-06T03:28:56.699Z,-0.19
2019-05-06T03:31:26.657Z,-0.14
2019-05-06T03:34:21.702Z,-0.18
2019-05-06T03:36:33.042Z,-0.32
2019-05-06T03:38:58.037Z,-0.18
2019-05-06T03:41:27.171Z,-0.29
2019-05-06T03:43:56.336Z,-0.34
2019-05-06T03:46:44.445Z,-0.38
2019-05-06T03:49:13.694Z,-0.42
2019-05-06T03:51:43.151Z,-0.37
2019-05-06T03:54:13.003Z,-0.48
2019-05-06T03:56:43.527Z,-0.54
2019-05-06T03:59:15.141Z,-0.55
2019-05-06T04:01:44.300Z,-0.52
2019-05-06T04:04:13.811Z,-0.46
2019-05-06T04:06:43.722Z,-0.56
2019-05-06T04:09:13.407Z,-0.62
2019-05-06T04:11:43.533Z,-0.60
2019-05-06T04:14:14.393Z,-0.52
2019-05-06T04:16:52.927Z,-0.46
2019-05-06T04:19:24.854Z,-0.39
2019-05-06T04:22:13.068Z,-0.27
2019-05-06T04:25:06.184Z,-0.35
2019-05-06T04:27:55.725Z,-0.26
2019-05-06T04:30:25.231Z,-0.17
2019-05-06T04:32:54.429Z,0.18
2019-05-06T04:35:23.785Z,0.48
2019-05-06T04:37:53.925Z,0.74
2019-05-06T04:40:24.013Z,0.90
2019-05-06T04:42:53.503Z,1.05
2019-05-06T04:45:23.622Z,1.39
2019-05-06T04:47:54.001Z,1.53
2019-05-06T04:50:24.349Z,1.98
2019-05-06T04:53:04.918Z,2.35
2019-05-06T04:55:37.445Z,2.43
2019-05-06T04:58:06.621Z,2.62
2019-05-06T05:00:37.375Z,2.85
2019-05-06T05:03:06.760Z,3.08
2019-05-06T05:05:36.294Z,3.13
2019-05-06T05:08:05.425Z,3.09
2019-05-06T05:10:44.498Z,3.15
2019-05-06T05:13:33.442Z,3.33
2019-05-06T05:16:22.245Z,3.27
2019-05-06T05:19:02.651Z,3.26
2019-05-06T05:21:32.230Z,3.48
2019-05-06T05:24:02.129Z,3.72
2019-05-06T05:26:32.267Z,3.72
2019-05-06T05:29:02.974Z,3.89
2019-05-06T05:31:33.197Z,3.78
2019-05-06T05:34:02.811Z,3.98
2019-05-06T05:36:32.750Z,4.16
2019-05-06T05:39:03.356Z,4.51
2019-05-06T05:41:33.400Z,4.59
2019-05-06T05:44:08.936Z,4.71
2019-05-06T05:46:38.552Z,4.81
2019-05-06T05:49:28.174Z,4.67
2019-05-06T05:51:57.430Z,5.03
2019-05-06T05:54:26.612Z,5.37
2019-05-06T05:56:55.918Z,5.80
2019-05-06T05:59:25.134Z,6.26
2019-05-06T06:01:54.417Z,6.33
2019-05-06T06:04:24.438Z,6.84
2019-05-06T06:06:53.638Z,7.16
2019-05-06T06:09:25.505Z,7.13
2019-05-06T06:11:57.006Z,7.84
2019-05-06T06:14:56.230Z,8.47
2019-05-06T06:17:47.199Z,7.79
2019-05-06T06:20:34.203Z,8.22
2019-05-06T06:23:09.592Z,7.54
2019-05-06T06:25:38.795Z,8.53
2019-05-06T06:28:08.016Z,11.00
2019-05-06T06:30:53.229Z,11.42
2019-05-06T06:33:22.495Z,10.12
2019-05-06T06:35:58.304Z,10.03
2019-05-06T06:38:52.697Z,9.40
2019-05-06T06:41:22.870Z,10.09
2019-05-06T06:43:55.492Z,12.23
2019-05-06T06:46:24.639Z,12.62
2019-05-06T06:48:53.816Z,12.59
2019-05-06T06:51:23.511Z,12.82
2019-05-06T06:53:53.044Z,13.01
2019-05-06T06:56:32.960Z,13.06
2019-05-06T06:59:07.626Z,11.13
2019-05-06T07:01:42.480Z,13.15
2019-05-06T07:04:23.167Z,13.70
2019-05-06T07:06:54.807Z,14.93
2019-05-06T07:09:24.167Z,14.82
2019-05-06T07:11:53.553Z,16.01
2019-05-06T07:14:22.824Z,15.54
2019-05-06T07:16:53.364Z,14.36
2019-05-06T07:19:34.379Z,15.14
2019-05-06T07:22:06.688Z,15.79
2019-05-06T07:24:34.629Z,16.06
2019-05-06T07:27:10.002Z,16.84
2019-05-06T07:29:39.562Z,14.24
2019-05-06T07:32:09.086Z,11.87
2019-05-06T07:34:38.269Z,13.29
2019-05-06T07:37:07.558Z,14.94
2019-05-06T07:39:36.817Z,14.13
2019-05-06T07:42:13.251Z,13.87
2019-05-06T07:44:54.364Z,13.35
2019-05-06T07:47:33.116Z,13.11
2019-05-06T07:50:02.643Z,12.94
2019-05-06T07:52:32.567Z,11.84
2019-05-06T07:55:02.675Z,11.50
2019-05-06T07:57:33.046Z,10.94
2019-05-06T08:00:03.332Z,10.91
2019-05-06T08:02:32.802Z,13.13
2019-05-06T08:05:02.744Z,17.02
2019-05-06T08:07:33.310Z,17.63
2019-05-06T08:10:03.126Z,16.52
2019-05-06T08:12:32.699Z,17.60
2019-05-06T08:15:05.335Z,19.06
2019-05-06T08:17:37.784Z,20.13
2019-05-06T08:20:08.390Z,20.27
2019-05-06T08:22:56.603Z,22.33
2019-05-06T08:25:25.947Z,23.30
2019-05-06T08:27:55.139Z,19.54
2019-05-06T08:30:24.389Z,19.81
2019-05-06T08:32:53.621Z,17.58
2019-05-06T08:35:22.863Z,14.57
2019-05-06T08:37:53.146Z,13.87
2019-05-06T08:40:26.133Z,15.36
2019-05-06T08:42:53.793Z,14.03
2019-05-06T08:45:23.098Z,14.74
2019-05-06T08:47:52.500Z,17.15
2019-05-06T08:50:32.481Z,18.35
2019-05-06T08:53:10.144Z,19.95
2019-05-06T08:55:42.097Z,23.24
2019-05-06T08:58:13.793Z,22.95
2019-05-06T09:00:57.682Z,22.78
2019-05-06T09:03:27.096Z,20.94
2019-05-06T09:05:56.250Z,21.80
2019-05-06T09:08:25.803Z,18.51
2019-05-06T09:10:55.299Z,16.95
2019-05-06T09:13:24.503Z,14.18
2019-05-06T09:15:53.647Z,13.59
2019-05-06T09:18:24.104Z,11.94
2019-05-06T09:20:53.775Z,13.02
2019-05-06T09:23:23.341Z,15.48
2019-05-06T09:25:54.593Z,18.48
2019-05-06T09:28:44.765Z,19.42
2019-05-06T09:31:17.666Z,17.94
2019-05-06T09:33:57.607Z,15.05
2019-05-06T09:36:39.798Z,12.76
2019-05-06T09:38:57.654Z,12.64
2019-05-06T09:41:26.903Z,12.37
2019-05-06T09:43:56.187Z,11.44
2019-05-06T09:46:25.512Z,11.36
2019-05-06T09:49:19.216Z,11.62
2019-05-06T09:51:48.603Z,12.18
2019-05-06T09:54:27.009Z,12.44
2019-05-06T09:57:03.059Z,12.53
2019-05-06T09:59:32.355Z,12.88
2019-05-06T10:02:01.693Z,11.89
2019-05-06T10:04:32.485Z,11.83
2019-05-06T10:07:02.652Z,10.61
2019-05-06T10:09:32.741Z,11.57
2019-05-06T10:12:02.312Z,12.64
2019-05-06T10:14:32.201Z,13.94
2019-05-06T10:17:04.465Z,14.46
2019-05-06T10:19:33.137Z,17.63
2019-05-06T10:22:03.600Z,20.99
2019-05-06T10:24:32.966Z,21.24
2019-05-06T10:27:02.605Z,22.78
2019-05-06T10:29:43.314Z,22.05
2019-05-06T10:32:34.524Z,20.19
2019-05-06T10:35:04.085Z,16.07
2019-05-06T10:37:57.452Z,17.72
2019-05-06T10:40:32.925Z,19.40
2019-05-06T10:43:25.483Z,16.83
2019-05-06T10:45:54.884Z,16.46
2019-05-06T10:48:24.254Z,15.38
2019-05-06T10:50:57.018Z,15.06
2019-05-06T10:53:26.415Z,14.26
2019-05-06T10:55:57.205Z,14.07
2019-05-06T10:58:26.451Z,13.12
2019-05-06T11:01:14.658Z,13.62
2019-05-06T11:03:43.862Z,14.82
2019-05-06T11:06:13.311Z,15.25
2019-05-06T11:08:42.773Z,16.00
2019-05-06T11:11:15.582Z,16.52
2019-05-06T11:13:43.267Z,15.45
2019-05-06T11:16:12.958Z,14.91
2019-05-06T11:18:42.774Z,14.95
2019-05-06T11:21:12.766Z,13.80
2019-05-06T11:23:42.275Z,13.15
2019-05-06T11:26:14.969Z,12.01
2019-05-06T11:28:53.805Z,13.62
2019-05-06T11:31:39.277Z,13.95
2019-05-06T11:34:25.207Z,15.12
2019-05-06T11:37:15.099Z,16.79
2019-05-06T11:39:44.591Z,17.99
2019-05-06T11:42:28.042Z,15.05
2019-05-06T11:44:44.941Z,16.48
2019-05-06T11:47:14.153Z,16.58
2019-05-06T11:49:44.264Z,15.19
2019-05-06T11:52:13.947Z,16.36
2019-05-06T11:54:43.246Z,19.25
2019-05-06T11:57:12.999Z,21.49
2019-05-06T11:59:43.273Z,19.81
2019-05-06T12:02:15.426Z,20.43
2019-05-06T12:04:44.676Z,17.51
2019-05-06T12:07:15.713Z,15.30
2019-05-06T12:09:44.962Z,15.23
2019-05-06T12:12:14.448Z,14.26
2019-05-06T12:14:43.666Z,14.54
2019-05-06T12:17:13.074Z,15.25
2019-05-06T12:19:43.230Z,14.26
2019-05-06T12:22:12.806Z,13.04
2019-05-06T12:24:43.009Z,13.57
2019-05-06T12:27:15.640Z,13.37
2019-05-06T12:29:44.903Z,13.46
2019-05-06T12:32:27.281Z,13.70
2019-05-06T12:34:56.598Z,13.44
2019-05-06T12:37:27.130Z,13.50
2019-05-06T12:39:58.960Z,13.68
2019-05-06T12:42:37.583Z,13.27
2019-05-06T12:45:29.246Z,14.18
2019-05-06T12:48:04.436Z,13.69
2019-05-06T12:50:34.041Z,14.19
2019-05-06T12:53:03.476Z,13.72
2019-05-06T12:55:33.636Z,13.69
2019-05-06T12:58:03.207Z,12.96
2019-05-06T13:00:34.023Z,13.78
2019-05-06T13:03:03.477Z,14.16
2019-05-06T13:05:32.701Z,13.90
2019-05-06T13:08:05.639Z,13.98
2019-05-06T13:10:33.513Z,15.12
2019-05-06T13:13:04.828Z,17.21
2019-05-06T13:15:34.355Z,16.13
2019-05-06T13:18:07.015Z,15.93
2019-05-06T13:20:37.588Z,15.00
2019-05-06T13:23:17.523Z,14.30
2019-05-06T13:25:45.208Z,13.77
2019-05-06T13:28:15.104Z,13.64
2019-05-06T13:30:44.659Z,13.85
2019-05-06T13:33:34.229Z,13.85
2019-05-06T13:36:03.817Z,13.91
2019-05-06T13:38:33.472Z,14.42
2019-05-06T13:41:03.256Z,13.95
2019-05-06T13:43:54.339Z,14.12
2019-05-06T13:46:29.300Z,13.90
2019-05-06T13:49:26.405Z,13.93
2019-05-06T13:52:04.201Z,14.50
2019-05-06T13:54:32.828Z,14.10
2019-05-06T13:57:02.944Z,14.64
2019-05-06T13:59:35.753Z,14.14
2019-05-06T14:02:20.342Z,14.19
2019-05-06T14:04:52.485Z,14.27
2019-05-06T14:07:21.318Z,14.44
2019-05-06T14:09:53.185Z,14.92
2019-05-06T14:12:22.658Z,13.53
2019-05-06T14:14:52.694Z,14.32
2019-05-06T14:17:22.558Z,15.42
2019-05-06T14:19:53.443Z,15.57
2019-05-06T14:22:23.397Z,15.57
2019-05-06T14:24:59.402Z,14.58
2019-05-06T14:27:37.473Z,13.95
2019-05-06T14:30:15.817Z,13.92
2019-05-06T14:32:45.219Z,13.78
2019-05-06T14:35:14.579Z,12.85
2019-05-06T14:37:43.751Z,11.95
2019-05-06T14:40:16.637Z,12.33
2019-05-06T14:42:45.870Z,12.55
2019-05-06T14:45:15.238Z,12.90
2019-05-06T14:47:44.664Z,13.02
2019-05-06T14:50:14.619Z,12.97
2019-05-06T14:52:44.234Z,12.96
2019-05-06T14:55:18.942Z,12.76
2019-05-06T14:57:48.197Z,13.25
2019-05-06T15:00:22.893Z,13.85
2019-05-06T15:02:53.334Z,13.16
2019-05-06T15:05:22.739Z,13.35
2019-05-06T15:07:52.858Z,12.47
2019-05-06T15:10:25.488Z,12.25
2019-05-06T15:12:53.530Z,12.19
2019-05-06T15:15:23.638Z,12.30
2019-05-06T15:17:53.395Z,12.17
2019-05-06T15:20:22.788Z,11.84
2019-05-06T15:22:52.943Z,11.54
2019-05-06T15:25:22.399Z,11.32
2019-05-06T15:27:53.189Z,11.75
2019-05-06T15:30:29.721Z,11.68
2019-05-06T15:32:58.917Z,11.91
2019-05-06T15:35:55.892Z,12.19
2019-05-06T15:38:27.284Z,12.12
2019-05-06T15:40:56.470Z,12.22
2019-05-06T15:43:25.676Z,11.59
2019-05-06T15:45:54.822Z,11.39
2019-05-06T15:48:24.005Z,11.87
2019-05-06T15:50:53.462Z,11.98
2019-05-06T15:53:22.894Z,12.12
2019-05-06T15:55:53.514Z,11.80
2019-05-06T15:58:23.065Z,11.07
2019-05-06T16:00:53.112Z,10.69
2019-05-06T16:03:22.947Z,10.70
2019-05-06T16:05:55.110Z,11.13
2019-05-06T16:08:24.491Z,10.96
2019-05-06T16:10:58.277Z,11.30
2019-05-06T16:13:25.060Z,11.07
2019-05-06T16:15:54.256Z,11.02
2019-05-06T16:18:23.623Z,10.79
2019-05-06T16:20:57.134Z,10.87
2019-05-06T16:23:32.585Z,11.11
2019-05-06T16:26:02.973Z,11.22
2019-05-06T16:28:32.276Z,11.26
2019-05-06T16:31:02.442Z,11.30
2019-05-06T16:33:32.918Z,12.19
2019-05-06T16:36:02.279Z,12.53
2019-05-06T16:38:32.287Z,12.49
2019-05-06T16:41:10.326Z,11.63
2019-05-06T16:43:34.337Z,11.68
2019-05-06T16:46:03.828Z,11.15
2019-05-06T16:48:33.272Z,10.91
2019-05-06T16:51:04.753Z,10.72
2019-05-06T16:53:35.121Z,10.56
2019-05-06T16:56:38.704Z,10.51
2019-05-06T16:59:07.882Z,9.98
2019-05-06T17:01:39.081Z,9.90
2019-05-06T17:04:29.865Z,10.31
2019-05-06T17:06:59.135Z,10.36
2019-05-06T17:09:28.328Z,10.30
2019-05-06T17:11:58.009Z,10.28
2019-05-06T17:14:27.188Z,10.29
2019-05-06T17:16:56.412Z,10.11
2019-05-06T17:19:25.615Z,10.26
2019-05-06T17:21:54.795Z,10.40
2019-05-06T17:24:24.045Z,10.03
2019-05-06T17:26:56.259Z,10.13
2019-05-06T17:29:58.072Z,9.91
2019-05-06T17:32:33.294Z,9.92
2019-05-06T17:35:02.747Z,9.63
2019-05-06T17:38:02.822Z,9.56
2019-05-06T17:40:32.744Z,9.37
2019-05-06T17:43:02.662Z,9.56
2019-05-06T17:46:01.955Z,9.57
2019-05-06T17:48:46.991Z,9.82
2019-05-06T17:51:21.590Z,9.68
2019-05-06T17:53:52.720Z,9.27
2019-05-06T17:56:22.397Z,9.28
2019-05-06T17:58:53.124Z,9.26
2019-05-06T18:01:42.087Z,9.39
2019-05-06T18:04:12.580Z,9.22
2019-05-06T18:06:42.570Z,9.11
2019-05-06T18:09:12.639Z,9.12
2019-05-06T18:11:43.792Z,8.91
2019-05-06T18:14:12.953Z,8.95
2019-05-06T18:16:42.744Z,8.96
2019-05-06T18:19:12.735Z,8.89
2019-05-06T18:21:42.082Z,8.78
2019-05-06T18:24:12.957Z,8.83
2019-05-06T18:26:42.267Z,8.70
2019-05-06T18:29:12.506Z,8.74
2019-05-06T18:31:42.722Z,8.92
2019-05-06T18:34:12.883Z,8.74
2019-05-06T18:36:43.027Z,8.81
2019-05-06T18:39:12.710Z,8.62
2019-05-06T18:41:42.239Z,8.72
2019-05-06T18:44:11.955Z,8.78
2019-05-06T18:46:42.008Z,8.66
2019-05-06T18:49:13.068Z,8.51
2019-05-06T18:51:42.784Z,8.50
2019-05-06T18:54:12.473Z,8.45
2019-05-06T18:56:43.001Z,8.56
2019-05-06T18:59:12.417Z,8.52
2019-05-06T19:01:43.335Z,8.47
2019-05-06T19:04:18.093Z,8.49
2019-05-06T19:06:47.311Z,8.47
2019-05-06T19:09:33.608Z,8.35
2019-05-06T19:12:03.627Z,8.42
2019-05-06T19:14:33.467Z,8.32
2019-05-06T19:17:02.906Z,8.37
2019-05-06T19:19:34.791Z,8.43
2019-05-06T19:22:03.096Z,8.44
2019-05-06T19:24:33.747Z,8.21
2019-05-06T19:27:03.206Z,8.09
2019-05-06T19:29:33.169Z,8.02
2019-05-06T19:32:03.141Z,7.91
2019-05-06T19:34:35.246Z,7.78
2019-05-06T19:37:03.688Z,7.64
2019-05-06T19:39:33.298Z,7.68
2019-05-06T19:42:05.023Z,7.70
2019-05-06T19:44:33.650Z,7.85
2019-05-06T19:47:02.859Z,7.78
2019-05-06T19:49:32.810Z,7.70
2019-05-06T19:52:03.184Z,7.65
2019-05-06T19:54:33.183Z,7.68
2019-05-06T19:57:02.709Z,7.59
2019-05-06T19:59:33.077Z,7.48
2019-05-06T20:02:02.405Z,7.48
2019-05-06T20:04:33.241Z,7.54
2019-05-06T20:07:13.120Z,7.46
2019-05-06T20:10:09.365Z,7.42
2019-05-06T20:12:58.387Z,7.42
2019-05-06T20:15:33.036Z,7.45
2019-05-06T20:18:03.067Z,7.47
2019-05-06T20:20:34.863Z,7.45
2019-05-06T20:23:03.658Z,7.42
2019-05-06T20:25:32.944Z,7.48
2019-05-06T20:28:02.467Z,7.43
2019-05-06T20:30:32.667Z,7.44
2019-05-06T20:33:01.971Z,7.15
2019-05-06T20:35:32.121Z,7.07
2019-05-06T20:38:02.771Z,7.07
2019-05-06T20:40:32.838Z,7.01
2019-05-06T20:43:14.217Z,7.09
2019-05-06T20:45:35.438Z,7.01
2019-05-06T20:48:04.324Z,6.88
2019-05-06T20:50:33.591Z,6.91
2019-05-06T20:53:02.826Z,6.81
2019-05-06T20:55:35.296Z,6.84
2019-05-06T20:58:03.089Z,6.85
2019-05-06T21:00:33.427Z,6.75
2019-05-06T21:03:02.861Z,6.69
2019-05-06T21:05:32.379Z,6.61
2019-05-06T21:08:02.332Z,6.55
2019-05-06T21:10:32.916Z,6.55
2019-05-06T21:13:02.551Z,6.42
2019-05-06T21:15:32.554Z,6.52
2019-05-06T21:18:04.234Z,6.48
2019-05-06T21:20:33.167Z,6.45
2019-05-06T21:23:02.704Z,6.43
2019-05-06T21:25:32.251Z,6.48
2019-05-06T21:28:02.893Z,6.47
2019-05-06T21:30:32.544Z,6.53
2019-05-06T21:33:01.907Z,6.49
2019-05-06T21:35:33.170Z,6.51
2019-05-06T21:38:02.652Z,6.50
2019-05-06T21:40:32.436Z,6.50
2019-05-06T21:43:02.256Z,6.34
2019-05-06T21:45:33.116Z,6.31
2019-05-06T21:48:02.973Z,6.31
2019-05-06T21:50:33.167Z,6.21
2019-05-06T21:53:02.931Z,6.13
2019-05-06T21:55:32.525Z,6.21
2019-05-06T21:58:02.310Z,6.29
2019-05-06T22:00:49.525Z,6.20
2019-05-06T22:03:18.727Z,6.23
2019-05-06T22:05:47.891Z,6.25
2019-05-06T22:08:17.091Z,6.17
2019-05-06T22:10:46.285Z,6.31
2019-05-06T22:13:15.520Z,6.24
2019-05-06T22:15:44.812Z,6.41
2019-05-06T22:18:14.077Z,6.26
2019-05-06T22:21:02.861Z,6.39
2019-05-06T22:24:05.890Z,6.32
2019-05-06T22:26:35.075Z,6.28
2019-05-06T22:29:04.426Z,6.19
2019-05-06T22:31:33.587Z,6.12
2019-05-06T22:34:13.392Z,6.17
2019-05-06T22:36:43.179Z,6.15
2019-05-06T22:39:12.430Z,6.12
2019-05-06T22:41:43.929Z,6.17
2019-05-06T22:44:14.303Z,6.21
2019-05-06T22:46:43.849Z,6.12
2019-05-06T22:49:13.432Z,6.11
2019-05-06T22:51:42.674Z,6.12
2019-05-06T22:54:11.903Z,6.08
2019-05-06T22:56:41.047Z,6.17
2019-05-06T22:59:12.132Z,6.05
2019-05-06T23:02:02.979Z,5.94
2019-05-06T23:04:33.369Z,5.92
2019-05-06T23:07:04.680Z,5.96
2019-05-06T23:09:33.506Z,5.98
2019-05-06T23:12:04.854Z,5.97
2019-05-06T23:14:36.939Z,5.90
2019-05-06T23:17:04.583Z,5.99
2019-05-06T23:19:33.726Z,6.03
2019-05-06T23:22:04.300Z,5.95
2019-05-06T23:24:33.757Z,5.96
2019-05-06T23:27:02.949Z,5.97
2019-05-06T23:29:32.126Z,5.95
2019-05-06T23:32:03.001Z,5.86
2019-05-06T23:34:32.523Z,5.84
2019-05-06T23:37:26.122Z,5.74
2019-05-06T23:40:48.206Z,5.80
2019-05-06T23:43:53.128Z,5.76
2019-05-06T23:46:58.350Z,5.84
2019-05-06T23:50:03.637Z,5.84
2019-05-06T23:53:08.947Z,5.89
2019-05-06T23:56:14.144Z,6.02
2019-05-06T23:58:43.333Z,5.93
